Time;durP1;ratioP1;P1;durP2;ratioP2;P2;SDS_P1;SDS_P2;PMS_P1;PMS_P2;Temp;Humidity;BMP_temperature;BMP_pressure;BME280_temperature;BME280_humidity;BME280_pressure;Samples;Min_cycle;Max_cycle;Signal;HPM_P1;HPM_P2
2023/09/07 00:00:34;;;;;;;5.23;4.63;;;;;;;18.09;100.00;100493.63;5024845;28;20191;-76
2023/09/07 00:02:59;;;;;;;4.60;4.20;;;;;;;18.09;100.00;100485.78;5026879;28;20278;-77
2023/09/07 00:05:25;;;;;;;5.67;4.60;;;;;;;18.09;100.00;100486.66;5021948;28;20193;-76
2023/09/07 00:07:50;;;;;;;4.77;4.30;;;;;;;18.08;100.00;100491.94;5028973;28;20655;-76
2023/09/07 00:10:17;;;;;;;5.93;4.07;;;;;;;18.04;100.00;100491.19;5031590;28;20238;-76
2023/09/07 00:12:42;;;;;;;5.17;4.40;;;;;;;17.99;100.00;100485.31;5022171;28;20215;-77
2023/09/07 00:15:10;;;;;;;4.30;3.93;;;;;;;18.02;100.00;100486.94;5026068;28;22368;-76
2023/09/07 00:17:35;;;;;;;4.67;4.27;;;;;;;18.04;100.00;100482.50;5031771;28;20267;-75
2023/09/07 00:20:04;;;;;;;4.20;3.90;;;;;;;18.04;100.00;100485.13;5026246;28;20198;-77
2023/09/07 00:22:29;;;;;;;4.40;4.00;;;;;;;18.04;100.00;100490.34;5022622;28;20257;-76
2023/09/07 00:24:54;;;;;;;5.37;4.10;;;;;;;18.01;100.00;100486.06;5031111;28;20212;-78
2023/09/07 00:27:20;;;;;;;4.77;4.40;;;;;;;17.99;100.00;100480.06;5031397;28;20671;-77
2023/09/07 00:29:45;;;;;;;5.27;4.70;;;;;;;17.96;100.00;100478.34;5024960;28;20351;-77
2023/09/07 00:32:10;;;;;;;4.93;4.43;;;;;;;17.97;100.00;100487.09;5029537;28;20665;-77
2023/09/07 00:34:36;;;;;;;4.40;4.00;;;;;;;17.97;100.00;100480.09;5030079;28;20319;-76
2023/09/07 00:37:01;;;;;;;6.30;3.70;;;;;;;17.98;100.00;100475.72;5026245;28;20215;-76
2023/09/07 00:39:26;;;;;;;4.73;4.33;;;;;;;17.86;100.00;100469.13;5032589;28;20619;-77
2023/09/07 00:41:52;;;;;;;4.17;3.77;;;;;;;17.89;100.00;100476.88;5025691;28;20230;-77
2023/09/07 00:44:17;;;;;;;5.43;4.40;;;;;;;17.86;100.00;100474.38;5030194;28;20187;-77
2023/09/07 00:46:44;;;;;;;5.67;4.07;;;;;;;17.77;100.00;100470.31;5028757;28;20238;-77
2023/09/07 00:49:10;;;;;;;4.87;3.80;;;;;;;17.72;100.00;100464.41;5042867;28;20902;-77
2023/09/07 00:51:36;;;;;;;4.30;3.90;;;;;;;17.67;100.00;100463.72;5038197;28;20207;-76
2023/09/07 00:54:01;;;;;;;4.70;4.30;;;;;;;17.72;100.00;100467.00;5035130;28;20617;-77
2023/09/07 00:56:27;;;;;;;4.50;4.10;;;;;;;17.76;100.00;100467.78;5035296;28;20841;-76
2023/09/07 00:58:54;;;;;;;4.03;3.73;;;;;;;17.68;100.00;100473.28;5026464;28;20903;-77
2023/09/07 01:01:21;;;;;;;5.80;3.60;;;;;;;17.61;100.00;100477.88;5029910;28;20900;-76
2023/09/07 01:03:47;;;;;;;3.80;3.50;;;;;;;17.58;100.00;100477.13;5028268;28;20686;-76
2023/09/07 01:06:17;;;;;;;4.57;3.97;;;;;;;17.64;100.00;100475.13;5029162;28;20179;-77
2023/09/07 01:08:47;;;;;;;4.60;3.70;;;;;;;17.65;100.00;100474.22;5025810;28;20254;-77
2023/09/07 01:11:17;;;;;;;4.50;4.10;;;;;;;17.70;100.00;100473.22;5024810;28;20576;-75
2023/09/07 01:13:43;;;;;;;4.10;3.80;;;;;;;17.68;100.00;100470.66;5030275;28;20185;-77
2023/09/07 01:16:10;;;;;;;5.90;3.67;;;;;;;17.67;100.00;100471.56;5031046;28;20238;-77
2023/09/07 01:18:37;;;;;;;4.77;3.70;;;;;;;17.64;100.00;100471.69;5038395;28;20183;-77
2023/09/07 01:21:05;;;;;;;4.90;3.80;;;;;;;17.65;100.00;100468.16;5038267;28;20246;-76
2023/09/07 01:23:31;;;;;;;6.77;4.40;;;;;;;17.59;100.00;100465.75;5033536;28;20672;-78
2023/09/07 01:25:57;;;;;;;4.87;4.10;;;;;;;17.58;100.00;100472.75;5034511;28;20243;-77
2023/09/07 01:28:22;;;;;;;7.97;4.17;;;;;;;17.45;100.00;100464.47;5034289;28;20802;-77
2023/09/07 01:30:48;;;;;;;4.37;4.07;;;;;;;17.46;100.00;100471.41;5029967;28;20211;-77
2023/09/07 01:33:13;;;;;;;4.33;3.93;;;;;;;17.39;100.00;100463.81;5033824;28;20191;-77
2023/09/07 01:35:39;;;;;;;4.47;4.00;;;;;;;17.39;100.00;100467.31;5026445;28;20195;-77
2023/09/07 01:38:05;;;;;;;4.37;4.03;;;;;;;17.35;100.00;100466.53;5025909;28;20201;-77
2023/09/07 01:40:30;;;;;;;4.40;4.00;;;;;;;17.35;100.00;100471.78;5023479;28;20656;-77
2023/09/07 01:42:55;;;;;;;4.60;4.17;;;;;;;17.25;100.00;100467.78;5026186;28;20229;-76
2023/09/07 01:45:22;;;;;;;4.53;3.93;;;;;;;17.23;100.00;100468.75;5030259;28;20236;-79
2023/09/07 01:47:47;;;;;;;4.53;4.13;;;;;;;17.24;100.00;100468.69;5028003;28;20894;-77
2023/09/07 01:50:14;;;;;;;4.37;4.00;;;;;;;17.18;100.00;100468.88;5025855;28;20192;-77
2023/09/07 01:52:39;;;;;;;4.97;4.30;;;;;;;17.14;100.00;100473.34;5031848;28;20200;-78
2023/09/07 01:55:04;;;;;;;4.90;4.40;;;;;;;17.06;100.00;100472.78;5027597;28;20245;-77
2023/09/07 01:57:31;;;;;;;5.00;4.13;;;;;;;17.03;100.00;100473.72;5030536;28;20202;-76
2023/09/07 01:59:57;;;;;;;4.77;3.80;;;;;;;16.99;100.00;100472.13;5027006;28;20294;-77
2023/09/07 02:02:23;;;;;;;4.30;3.90;;;;;;;16.94;100.00;100466.16;5024124;28;20205;-77
2023/09/07 02:04:48;;;;;;;4.17;3.87;;;;;;;16.88;100.00;100469.81;5023166;28;20199;-77
2023/09/07 02:07:14;;;;;;;4.50;4.00;;;;;;;16.86;100.00;100455.94;5025861;28;20605;-77
2023/09/07 02:09:40;;;;;;;4.30;4.00;;;;;;;16.79;100.00;100464.03;5027571;28;20208;-77
2023/09/07 02:12:05;;;;;;;5.93;4.00;;;;;;;16.79;100.00;100461.41;5020235;28;20208;-79
2023/09/07 02:14:31;;;;;;;5.90;4.10;;;;;;;16.73;100.00;100462.47;5021277;28;20184;-76
2023/09/07 02:16:56;;;;;;;4.83;4.33;;;;;;;16.68;100.00;100465.22;5025746;28;20239;-76
2023/09/07 02:19:23;;;;;;;4.73;3.97;;;;;;;16.61;100.00;100463.69;5024703;28;20187;-76
2023/09/07 02:21:48;;;;;;;4.43;4.03;;;;;;;16.57;100.00;100460.34;5029630;28;20798;-76
2023/09/07 02:24:14;;;;;;;4.23;3.83;;;;;;;16.55;100.00;100463.91;5031640;28;20274;-77
2023/09/07 02:26:44;;;;;;;3.97;3.60;;;;;;;16.55;100.00;100463.91;5026776;28;20659;-78
2023/09/07 02:29:10;;;;;;;4.10;3.77;;;;;;;16.56;100.00;100463.00;5029851;28;20210;-77
2023/09/07 02:31:35;;;;;;;4.57;3.73;;;;;;;16.63;100.00;100471.50;5026312;28;20205;-78
2023/09/07 02:34:00;;;;;;;4.60;4.03;;;;;;;16.64;100.00;100465.38;5023129;28;20306;-77
2023/09/07 02:36:26;;;;;;;4.33;4.03;;;;;;;16.52;100.00;100469.22;5021173;28;20624;-77
2023/09/07 02:38:51;;;;;;;5.07;4.40;;;;;;;16.52;100.00;100467.44;5034867;28;20616;-77
2023/09/07 02:41:16;;;;;;;4.43;4.10;;;;;;;16.51;100.00;100467.50;5024155;28;20396;-77
2023/09/07 02:43:42;;;;;;;3.83;3.47;;;;;;;16.42;100.00;100469.47;5032985;28;20237;-77
2023/09/07 02:46:07;;;;;;;3.83;3.53;;;;;;;16.36;100.00;100463.59;5043590;28;20191;-77
2023/09/07 02:48:32;;;;;;;4.27;3.93;;;;;;;16.34;100.00;100466.28;5031946;28;20683;-76
2023/09/07 02:50:58;;;;;;;5.60;4.03;;;;;;;16.31;100.00;100466.34;5030911;28;20199;-77
2023/09/07 02:53:24;;;;;;;4.40;4.07;;;;;;;16.28;100.00;100456.00;5032144;28;20183;-78
2023/09/07 02:55:49;;;;;;;5.33;4.03;;;;;;;16.23;100.00;100457.91;5032944;28;20184;-76
2023/09/07 02:58:15;;;;;;;5.20;3.90;;;;;;;16.20;100.00;100463.22;5023171;28;20192;-76
2023/09/07 03:00:44;;;;;;;4.40;3.80;;;;;;;16.20;100.00;100465.81;5030042;28;20199;-77
2023/09/07 03:03:12;;;;;;;6.00;4.10;;;;;;;16.14;100.00;100464.25;5026147;28;20200;-76
2023/09/07 03:05:40;;;;;;;3.83;3.53;;;;;;;16.13;100.00;100468.59;5026971;28;20204;-76
2023/09/07 03:08:06;;;;;;;3.80;3.50;;;;;;;16.15;100.00;100468.56;5021018;28;20230;-76
2023/09/07 03:10:31;;;;;;;4.10;3.80;;;;;;;16.16;100.00;100475.50;5019711;28;20195;-77
2023/09/07 03:12:57;;;;;;;3.73;3.40;;;;;;;16.16;100.00;100478.13;5028175;28;20237;-77
2023/09/07 03:15:22;;;;;;;3.73;3.47;;;;;;;16.15;100.00;100471.19;5032078;28;20179;-77
2023/09/07 03:17:47;;;;;;;4.63;3.90;;;;;;;16.18;100.00;100472.84;5027233;28;20291;-77
2023/09/07 03:20:16;;;;;;;3.90;3.40;;;;;;;16.11;100.00;100470.41;5030166;28;20766;-78
2023/09/07 03:22:42;;;;;;;5.77;3.57;;;;;;;16.10;100.00;100476.53;5028237;28;20294;-75
2023/09/07 03:25:09;;;;;;;5.93;3.80;;;;;;;16.11;100.00;100466.94;5025892;28;20223;-77
2023/09/07 03:27:34;;;;;;;5.27;4.20;;;;;;;16.21;100.00;100473.59;5039833;28;20983;-77
2023/09/07 03:29:59;;;;;;;4.80;4.00;;;;;;;16.32;100.00;100467.22;5029316;28;20230;-77
2023/09/07 03:32:26;;;;;;;4.97;4.00;;;;;;;16.27;100.00;100470.81;5025648;28;20215;-76
2023/09/07 03:34:52;;;;;;;8.10;4.20;;;;;;;16.20;100.00;100471.03;5029041;28;20216;-75
2023/09/07 03:37:17;;;;;;;4.43;3.90;;;;;;;16.17;100.00;100468.50;5029865;28;20234;-76
2023/09/07 03:39:42;;;;;;;5.00;4.10;;;;;;;16.11;100.00;100467.78;5024904;28;20179;-77
2023/09/07 03:42:08;;;;;;;5.10;4.07;;;;;;;16.11;100.00;100470.41;5030943;28;20207;-76
2023/09/07 03:44:33;;;;;;;6.30;4.00;;;;;;;16.05;100.00;100457.53;5027731;28;20190;-76
2023/09/07 03:47:00;;;;;;;4.87;3.80;;;;;;;16.07;100.00;100452.25;5027508;28;20193;-76
2023/09/07 03:49:25;;;;;;;5.40;3.83;;;;;;;16.09;100.00;100455.69;5030275;28;20209;-77
2023/09/07 03:51:51;;;;;;;5.43;3.93;;;;;;;16.16;100.00;100465.06;5028571;28;20294;-77
2023/09/07 03:54:16;;;;;;;4.67;4.27;;;;;;;16.13;100.00;100457.31;5021684;28;20190;-78
2023/09/07 03:56:41;;;;;;;4.13;3.83;;;;;;;16.11;100.00;100464.34;5025655;28;20729;-77
2023/09/07 03:59:06;;;;;;;6.30;4.30;;;;;;;16.12;100.00;100460.81;5022411;28;20193;-77
2023/09/07 04:01:32;;;;;;;4.20;3.80;;;;;;;16.05;100.00;100462.75;5032736;28;20207;-77
2023/09/07 04:03:58;;;;;;;4.40;4.00;;;;;;;15.99;100.00;100462.94;5027541;28;20591;-76
2023/09/07 04:06:24;;;;;;;3.70;3.40;;;;;;;15.94;100.00;100470.06;5027012;28;20296;-78
2023/09/07 04:08:49;;;;;;;7.53;4.27;;;;;;;16.02;100.00;100465.44;5030852;28;20972;-78
2023/09/07 04:11:14;;;;;;;4.70;4.20;;;;;;;15.93;100.00;100466.56;5028866;28;20202;-77
2023/09/07 04:13:39;;;;;;;4.17;3.77;;;;;;;15.87;100.00;100461.53;5021475;28;20188;-78
2023/09/07 04:16:05;;;;;;;3.90;3.50;;;;;;;15.85;100.00;100466.78;5037922;28;20633;-76
2023/09/07 04:18:30;;;;;;;5.03;4.07;;;;;;;15.87;100.00;100461.53;5024153;28;20992;-76
2023/09/07 04:21:07;;;;;;;4.40;4.00;;;;;;;15.85;100.00;100463.34;5023142;28;20214;-77
2023/09/07 04:23:34;;;;;;;4.73;3.30;;;;;;;15.85;100.00;100463.34;5029455;28;20179;-76
2023/09/07 04:26:06;;;;;;;4.67;4.27;;;;;;;15.82;100.00;100458.16;5041545;28;20269;-76
2023/09/07 04:28:32;;;;;;;6.93;4.13;;;;;;;15.79;100.00;100453.03;5022252;28;20218;-76
2023/09/07 04:30:57;;;;;;;4.83;4.40;;;;;;;15.79;100.00;100451.28;5022090;28;20208;-77
2023/09/07 04:33:22;;;;;;;4.60;4.20;;;;;;;15.75;100.00;100454.88;5027311;28;20195;-77
2023/09/07 04:35:48;;;;;;;4.60;3.90;;;;;;;15.69;100.00;100455.03;5041455;28;20209;-77
2023/09/07 04:38:13;;;;;;;4.10;3.80;;;;;;;15.64;100.00;100447.34;5030996;28;20175;-77
2023/09/07 04:40:38;;;;;;;4.17;3.53;;;;;;;15.63;100.00;100450.00;5030299;28;20190;-77
2023/09/07 04:43:03;;;;;;;7.03;4.00;;;;;;;15.63;100.00;100453.44;5036457;28;20188;-77
2023/09/07 04:45:29;;;;;;;6.03;4.33;;;;;;;15.56;100.00;100454.53;5036126;28;20214;-78
2023/09/07 04:47:54;;;;;;;4.80;4.27;;;;;;;15.55;100.00;100458.03;5034709;28;20197;-77
2023/09/07 04:50:20;;;;;;;4.17;3.80;;;;;;;15.53;100.00;100452.00;5035935;28;20189;-77
2023/09/07 04:52:45;;;;;;;4.10;3.70;;;;;;;15.54;100.00;100449.34;5035852;28;20207;-77
2023/09/07 04:55:11;;;;;;;4.90;4.50;;;;;;;15.54;100.00;100457.16;5030443;28;20929;-76
2023/09/07 04:57:37;;;;;;;5.83;4.50;;;;;;;15.56;100.00;100454.53;5030041;28;20610;-77
2023/09/07 05:00:03;;;;;;;4.40;3.90;;;;;;;15.57;100.00;100450.16;5025549;28;20253;-76
2023/09/07 05:02:28;;;;;;;4.80;4.40;;;;;;;15.58;100.00;100462.31;5029067;28;20221;-76
2023/09/07 05:04:54;;;;;;;4.20;3.90;;;;;;;15.58;100.00;100462.31;5044430;28;20186;-77
2023/09/07 05:07:19;;;;;;;4.20;3.80;;;;;;;15.60;100.00;100455.28;5042523;28;20180;-77
2023/09/07 05:09:44;;;;;;;4.30;4.00;;;;;;;15.62;100.00;100461.31;5034475;28;20583;-77
2023/09/07 05:12:10;;;;;;;4.47;4.17;;;;;;;15.64;100.00;100463.00;5017819;28;20306;-78
2023/09/07 05:14:36;;;;;;;5.60;4.13;;;;;;;15.64;100.00;100463.00;5024492;28;20182;-77
2023/09/07 05:17:01;;;;;;;4.53;3.93;;;;;;;15.67;100.00;100464.66;5022205;28;20191;-77
2023/09/07 05:19:27;;;;;;;5.40;4.10;;;;;;;15.68;100.00;100456.78;5020078;28;20187;-77
2023/09/07 05:21:52;;;;;;;4.97;3.47;;;;;;;15.71;100.00;100468.88;5025498;28;20218;-77
2023/09/07 05:24:17;;;;;;;4.40;4.00;;;;;;;15.74;100.00;100458.38;5019791;28;20187;-77
2023/09/07 05:26:43;;;;;;;3.70;3.40;;;;;;;15.79;100.00;100463.47;5022542;28;20192;-77
2023/09/07 05:29:09;;;;;;;4.23;3.90;;;;;;;15.84;100.00;100470.25;5023040;28;20214;-76
2023/09/07 05:31:35;;;;;;;4.47;4.07;;;;;;;15.88;100.00;100471.09;5023773;28;20206;-77
2023/09/07 05:34:00;;;;;;;3.87;3.57;;;;;;;15.93;100.00;100481.38;5018980;28;20185;-77
2023/09/07 05:36:27;;;;;;;4.00;3.70;;;;;;;16.00;100.00;100477.69;5025072;28;20290;-77
2023/09/07 05:38:52;;;;;;;3.80;3.50;;;;;;;16.08;100.00;100486.19;5020836;28;20181;-77
2023/09/07 05:41:17;;;;;;;4.07;3.77;;;;;;;16.16;100.00;100488.56;5022338;28;20265;-76
2023/09/07 05:43:43;;;;;;;3.90;3.60;;;;;;;16.23;100.00;100491.84;5016926;28;20192;-77
2023/09/07 05:46:08;;;;;;;3.90;3.60;;;;;;;16.31;100.00;100500.31;5026342;28;20194;-78
2023/09/07 05:48:33;;;;;;;4.70;4.20;;;;;;;16.41;100.00;100496.50;5021623;28;20729;-77
2023/09/07 05:50:59;;;;;;;6.20;3.83;;;;;;;16.52;100.00;100490.97;5027521;28;20204;-78
2023/09/07 05:53:26;;;;;;;7.20;4.00;;;;;;;16.54;100.00;100497.00;5023476;28;22351;-78
2023/09/07 05:55:51;;;;;;;4.50;4.03;;;;;;;16.63;100.00;100490.63;5026275;28;20339;-79
2023/09/07 05:58:17;;;;;;;4.40;4.00;;;;;;;16.75;100.00;100494.63;5024241;28;20180;-77
2023/09/07 06:00:43;;;;;;;3.90;3.60;;;;;;;16.83;100.00;100489.16;5018899;28;20191;-77
2023/09/07 06:03:09;;;;;;;5.63;3.93;;;;;;;16.89;100.00;100497.66;5028612;28;20184;-76
2023/09/07 06:05:35;;;;;;;5.10;4.10;;;;;;;16.95;100.00;100491.41;5021569;28;20253;-79
2023/09/07 06:08:01;;;;;;;10.17;9.27;;;;;;;17.00;100.00;100492.13;5022872;28;20188;-77
2023/09/07 06:10:29;;;;;;;4.13;3.73;;;;;;;17.05;100.00;100490.19;5036805;28;20236;-77
2023/09/07 06:12:54;;;;;;;5.30;4.40;;;;;;;17.14;100.00;100493.44;5028161;28;20293;-77
2023/09/07 06:15:20;;;;;;;4.13;3.80;;;;;;;17.25;100.00;100493.06;5030611;28;20281;-77
2023/09/07 06:17:45;;;;;;;5.57;4.17;;;;;;;17.33;100.00;100488.44;5016420;28;20207;-76
2023/09/07 06:20:11;;;;;;;5.17;4.37;;;;;;;17.38;100.00;100489.16;5026587;28;20261;-76
2023/09/07 06:22:36;;;;;;;5.40;3.70;;;;;;;17.49;100.00;100494.00;5025317;28;20298;-78
2023/09/07 06:25:01;;;;;;;4.30;3.90;;;;;;;17.61;100.00;100497.94;5019933;28;20195;-78
2023/09/07 06:27:27;;;;;;;4.80;4.00;;;;;;;17.73;100.00;100500.13;5022241;28;20250;-77
2023/09/07 06:29:52;;;;;;;4.23;3.60;;;;;;;17.91;100.00;100497.75;5025981;28;20784;-77
2023/09/07 06:32:18;;;;;;;3.90;3.60;;;;;;;18.08;100.00;100503.28;5029197;28;20210;-78
2023/09/07 06:34:43;;;;;;;4.23;3.83;;;;;;;18.26;100.00;100504.34;5019828;28;20278;-77
2023/09/07 06:37:11;;;;;;;4.30;3.90;;;;;;;18.52;100.00;100499.91;5027174;28;20231;-78
2023/09/07 06:39:36;;;;;;;4.53;4.10;;;;;;;18.92;100.00;100502.69;5032425;28;20603;-81
2023/09/07 06:42:03;;;;;;;4.07;3.77;;;;;;;19.25;100.00;100511.91;5030703;28;20195;-77
2023/09/07 06:44:28;;;;;;;4.80;3.37;;;;;;;19.53;100.00;100508.94;5037796;28;20202;-78
2023/09/07 06:46:54;;;;;;;3.50;3.20;;;;;;;19.94;100.00;100511.59;5034065;28;20186;-78
2023/09/07 06:49:19;;;;;;;3.33;2.93;;;;;;;20.31;100.00;100516.94;5024888;28;20210;-78
2023/09/07 06:51:44;;;;;;;3.27;2.97;;;;;;;20.75;100.00;100512.28;5024086;28;20207;-79
2023/09/07 06:54:10;;;;;;;3.17;2.90;;;;;;;21.17;99.39;100514.66;5030591;28;20825;-78
2023/09/07 06:56:35;;;;;;;2.90;2.60;;;;;;;21.64;98.03;100522.00;5024380;28;20179;-79
2023/09/07 06:59:01;;;;;;;4.70;2.77;;;;;;;22.11;96.46;100518.66;5017025;28;20258;-79
2023/09/07 07:01:26;;;;;;;3.50;2.60;;;;;;;22.46;95.57;100521.16;5029025;28;20328;-80
2023/09/07 07:03:52;;;;;;;3.40;2.80;;;;;;;22.77;93.36;100514.19;5031851;28;20191;-80
2023/09/07 07:06:18;;;;;;;3.93;2.40;;;;;;;23.06;91.74;100516.97;5028793;28;20191;-80
2023/09/07 07:08:44;;;;;;;4.47;3.10;;;;;;;23.06;85.24;100524.88;5020569;28;20219;-79
2023/09/07 07:11:09;;;;;;;3.27;2.97;;;;;;;23.26;86.28;100517.59;5026708;28;20294;-79
2023/09/07 07:13:34;;;;;;;3.33;3.03;;;;;;;23.22;85.53;100521.34;5030256;28;20206;-80
2023/09/07 07:16:00;;;;;;;4.10;3.40;;;;;;;23.22;84.89;100521.34;5029314;28;20183;-79
2023/09/07 07:18:25;;;;;;;3.47;3.17;;;;;;;23.41;82.89;100523.78;5031002;28;20180;-79
2023/09/07 07:20:50;;;;;;;3.60;3.00;;;;;;;23.70;83.90;100522.03;5043073;28;20305;-78
2023/09/07 07:23:16;;;;;;;2.70;2.50;;;;;;;23.94;83.53;100523.25;5022948;28;20194;-79
2023/09/07 07:25:41;;;;;;;5.75;3.30;;;;;;;23.59;82.98;100524.47;5023982;28;20664;-80
2023/09/07 07:28:07;;;;;;;4.07;2.90;;;;;;;23.89;82.34;100526.19;5022991;28;20680;-77
2023/09/07 07:30:34;;;;;;;4.20;3.33;;;;;;;24.17;81.74;100525.38;5027262;28;20248;-78
2023/09/07 07:32:59;;;;;;;5.18;3.05;;;;;;;23.98;82.07;100533.56;5022399;28;20183;-78
2023/09/07 07:35:25;;;;;;;3.55;3.20;;;;;;;24.15;81.91;100521.97;5026824;28;20187;-78
2023/09/07 07:37:51;;;;;;;6.30;3.20;;;;;;;23.76;81.48;100528.72;5031264;28;20188;-78
2023/09/07 07:40:17;;;;;;;5.07;3.43;;;;;;;23.39;84.24;100525.66;5034576;28;20182;-78
2023/09/07 07:42:43;;;;;;;3.13;2.80;;;;;;;23.86;83.32;100523.72;5035657;28;20206;-80
2023/09/07 07:45:09;;;;;;;3.60;3.00;;;;;;;24.06;82.70;100530.47;5020994;28;20330;-79
2023/09/07 07:47:34;;;;;;;4.43;3.67;;;;;;;23.40;83.21;100525.56;5032458;28;20274;-78
2023/09/07 07:50:00;;;;;;;4.47;3.20;;;;;;;23.73;84.04;100526.28;5030606;28;20276;-80
2023/09/07 07:52:26;;;;;;;3.93;2.97;;;;;;;24.04;83.56;100529.72;5026363;28;20256;-78
2023/09/07 07:54:51;;;;;;;3.00;2.80;;;;;;;24.17;83.48;100529.81;5022391;28;20198;-77
2023/09/07 07:57:17;;;;;;;3.73;3.33;;;;;;;23.72;83.85;100528.06;5031584;28;20203;-81
2023/09/07 07:59:42;;;;;;;3.30;3.00;;;;;;;23.52;84.13;100526.63;5024529;28;20691;-77
2023/09/07 08:02:07;;;;;;;4.07;2.97;;;;;;;23.67;84.69;100524.84;5032685;28;20291;-78
2023/09/07 08:04:34;;;;;;;3.17;2.97;;;;;;;23.51;84.98;100521.44;5030896;28;20217;-78
2023/09/07 08:07:03;;;;;;;4.00;2.90;;;;;;;23.23;85.67;100528.34;5031427;28;20190;-78
2023/09/07 08:09:29;;;;;;;5.07;3.53;;;;;;;23.22;85.94;100518.72;5022714;28;20299;-78
2023/09/07 08:11:55;;;;;;;4.07;3.57;;;;;;;23.03;86.79;100524.19;5031154;28;20257;-80
2023/09/07 08:14:22;;;;;;;3.57;3.27;;;;;;;22.90;87.57;100524.06;5028625;28;20695;-78
2023/09/07 08:16:47;;;;;;;3.60;3.27;;;;;;;23.07;86.01;100518.63;5034832;28;20198;-78
2023/09/07 08:19:13;;;;;;;3.90;3.60;;;;;;;23.12;86.84;100521.88;5026222;28;20179;-78
2023/09/07 08:21:38;;;;;;;3.20;3.00;;;;;;;23.14;87.40;100525.28;5021114;28;20215;-78
2023/09/07 08:24:03;;;;;;;3.37;3.07;;;;;;;23.06;87.61;100524.00;5025716;28;20184;-77
2023/09/07 08:26:29;;;;;;;3.63;3.33;;;;;;;23.12;88.14;100526.31;5024687;28;20212;-78
2023/09/07 08:28:54;;;;;;;3.50;3.13;;;;;;;23.08;88.27;100524.78;5036054;28;20292;-78
2023/09/07 08:31:22;;;;;;;4.00;3.30;;;;;;;23.16;88.01;100530.44;5039793;28;20651;-77
2023/09/07 08:33:50;;;;;;;3.57;3.27;;;;;;;23.22;87.29;100529.28;5042197;28;20183;-79
2023/09/07 08:36:17;;;;;;;3.43;3.13;;;;;;;23.22;87.65;100522.22;5042620;28;20188;-78
2023/09/07 08:38:42;;;;;;;3.37;3.07;;;;;;;23.27;87.40;100522.81;5040972;28;20222;-77
2023/09/07 08:41:08;;;;;;;3.50;3.20;;;;;;;23.35;86.58;100526.78;5035163;28;20710;-78
2023/09/07 08:43:40;;;;;;;3.63;3.23;;;;;;;23.36;86.94;100528.47;5026190;28;20184;-78
2023/09/07 08:46:14;;;;;;;6.20;3.53;;;;;;;23.42;85.97;100528.13;5026161;28;20195;-78
2023/09/07 08:48:42;;;;;;;4.67;3.73;;;;;;;23.46;85.54;100532.25;5025502;28;20214;-78
2023/09/07 08:51:08;;;;;;;4.10;3.27;;;;;;;23.52;85.56;100526.63;5029508;28;20200;-77
2023/09/07 08:53:35;;;;;;;3.80;3.30;;;;;;;23.50;85.76;100536.44;5029331;28;20749;-79
2023/09/07 08:56:02;;;;;;;3.30;3.07;;;;;;;23.50;86.65;100533.78;5026267;28;20179;-78
2023/09/07 08:58:27;;;;;;;3.57;3.23;;;;;;;23.59;86.04;100530.63;5024186;28;20206;-79
2023/09/07 09:00:53;;;;;;;3.43;3.13;;;;;;;23.65;86.76;100520.59;5037353;28;20249;-78
2023/09/07 09:03:19;;;;;;;4.80;3.20;;;;;;;23.69;87.19;100524.78;5038835;28;20183;-78
2023/09/07 09:05:44;;;;;;;3.77;3.47;;;;;;;23.79;87.50;100527.72;5040890;28;20609;-80
2023/09/07 09:08:10;;;;;;;3.37;3.07;;;;;;;23.90;88.46;100528.72;5033770;28;20233;-80
2023/09/07 09:10:38;;;;;;;3.73;3.43;;;;;;;23.96;88.93;100534.59;5032007;28;20249;-79
2023/09/07 09:13:04;;;;;;;3.80;3.27;;;;;;;23.99;89.31;100524.69;5036954;28;20183;-79
2023/09/07 09:15:29;;;;;;;6.17;3.87;;;;;;;23.99;89.09;100524.69;5039956;28;20187;-81
2023/09/07 09:17:55;;;;;;;4.30;3.90;;;;;;;23.52;90.86;100525.78;5032350;28;20648;-80
2023/09/07 09:20:24;;;;;;;4.57;3.97;;;;;;;23.33;91.27;100529.53;5043796;28;20175;-78
2023/09/07 09:22:52;;;;;;;3.60;3.30;;;;;;;23.38;91.60;100526.59;5035350;28;20199;-80
2023/09/07 09:25:17;;;;;;;6.23;3.77;;;;;;;23.49;91.49;100525.97;5030316;28;20176;-78
2023/09/07 09:27:42;;;;;;;4.17;3.77;;;;;;;23.65;91.48;100517.97;5031314;28;20282;-79
2023/09/07 09:30:08;;;;;;;4.40;3.60;;;;;;;23.70;91.48;100516.72;5029177;28;20203;-78
2023/09/07 09:32:34;;;;;;;4.63;3.73;;;;;;;23.84;90.83;100517.69;5035313;28;20724;-79
2023/09/07 09:35:00;;;;;;;3.77;3.30;;;;;;;24.00;90.40;100517.63;5033243;28;20264;-79
2023/09/07 09:37:26;;;;;;;3.93;3.50;;;;;;;24.15;90.09;100515.81;5027697;28;20241;-79
2023/09/07 09:39:53;;;;;;;3.90;3.33;;;;;;;24.19;90.43;100515.56;5035655;28;20188;-79
2023/09/07 09:42:20;;;;;;;4.60;4.20;;;;;;;24.01;89.24;100509.59;5027697;28;20210;-78
2023/09/07 09:44:49;;;;;;;5.00;4.10;;;;;;;24.08;90.54;100511.88;5034794;28;20219;-79
2023/09/07 09:47:15;;;;;;;4.47;3.97;;;;;;;24.32;89.92;100512.97;5030167;28;20180;-79
2023/09/07 09:49:41;;;;;;;5.97;4.33;;;;;;;24.16;90.08;100506.94;5027924;28;20318;-79
2023/09/07 09:52:07;;;;;;;4.60;4.20;;;;;;;24.47;89.20;100503.22;5027591;28;20227;-79
2023/09/07 09:54:35;;;;;;;4.20;3.80;;;;;;;24.64;88.86;100504.78;5029351;28;20676;-79
2023/09/07 09:57:00;;;;;;;3.90;3.60;;;;;;;24.78;89.04;100505.69;5029062;28;20838;-79
2023/09/07 09:59:26;;;;;;;5.63;4.33;;;;;;;24.74;88.87;100499.75;5038831;28;20187;-79
2023/09/07 10:01:54;;;;;;;4.00;3.70;;;;;;;24.84;88.22;100497.38;5025969;28;20571;-79
2023/09/07 10:04:22;;;;;;;3.97;3.67;;;;;;;25.00;89.28;100493.69;5031404;28;20194;-78
2023/09/07 10:06:55;;;;;;;4.90;3.90;;;;;;;24.91;88.12;100496.00;5034873;28;20184;-78
2023/09/07 10:09:21;;;;;;;5.43;4.93;;;;;;;24.55;87.97;100494.78;5031399;28;20203;-80
2023/09/07 10:11:53;;;;;;;5.13;4.23;;;;;;;24.40;88.42;100495.78;5029585;28;20261;-79
2023/09/07 10:14:18;;;;;;;6.40;5.17;;;;;;;24.43;87.69;100498.22;5031117;28;20192;-80
2023/09/07 10:16:48;;;;;;;6.37;4.33;;;;;;;24.65;87.64;100489.75;5035648;28;20196;-81
2023/09/07 10:19:22;;;;;;;5.50;4.70;;;;;;;24.63;88.86;100502.22;5039228;28;20186;-78
2023/09/07 10:21:49;;;;;;;4.60;4.20;;;;;;;24.72;88.23;100487.59;5030502;28;20203;-81
2023/09/07 10:24:46;;;;;;;5.50;4.97;;;;;;;24.64;87.82;100496.00;5035296;28;20175;-80
2023/09/07 10:27:11;;;;;;;4.47;4.07;;;;;;;25.02;86.17;100486.50;5031300;28;20213;-81
2023/09/07 10:29:52;;;;;;;4.50;4.10;;;;;;;25.19;86.46;100490.66;5054651;28;20203;-81
2023/09/07 10:32:17;;;;;;;7.07;4.97;;;;;;;24.92;85.98;100481.81;5042476;28;20352;-81
2023/09/07 10:34:43;;;;;;;6.03;4.90;;;;;;;24.81;87.29;100493.09;5032737;28;20228;-80
2023/09/07 10:37:13;;;;;;;5.33;4.83;;;;;;;24.66;85.68;100478.19;5034966;28;20219;-81
2023/09/07 10:39:39;;;;;;;5.30;4.90;;;;;;;24.74;86.91;100483.88;5031335;28;20212;-81
2023/09/07 10:42:04;;;;;;;5.97;4.63;;;;;;;24.84;86.68;100475.31;5031047;28;20203;-80
2023/09/07 10:44:30;;;;;;;5.00;4.60;;;;;;;25.05;85.27;100471.25;5029003;28;20588;-80
2023/09/07 10:46:57;;;;;;;5.20;4.67;;;;;;;25.08;85.14;100470.19;5027689;28;20187;-80
2023/09/07 10:49:24;;;;;;;5.27;4.63;;;;;;;25.26;85.07;100466.31;5037697;28;20199;-80
2023/09/07 10:51:49;;;;;;;5.50;5.10;;;;;;;25.04;84.83;100466.06;5024933;28;20215;-79
2023/09/07 10:54:16;;;;;;;4.93;4.53;;;;;;;25.09;85.17;100458.66;5024797;28;20188;-80
2023/09/07 10:56:44;;;;;;;5.07;4.57;;;;;;;25.08;85.17;100464.91;5018260;28;20275;-78
2023/09/07 10:59:09;;;;;;;5.13;4.73;;;;;;;25.29;85.40;100449.34;5023583;28;20314;-79
2023/09/07 11:01:35;;;;;;;7.23;5.00;;;;;;;25.18;85.24;100450.09;5027717;28;20231;-80
2023/09/07 11:04:00;;;;;;;5.50;4.80;;;;;;;25.06;84.71;100456.22;5024302;28;20197;-79
2023/09/07 11:06:26;;;;;;;7.00;5.10;;;;;;;25.16;85.32;100452.00;5025753;28;20270;-79
2023/09/07 11:08:52;;;;;;;7.40;5.20;;;;;;;25.24;84.78;100448.84;5028526;28;20215;-78
2023/09/07 11:11:17;;;;;;;5.53;5.03;;;;;;;25.40;84.69;100438.03;5025291;28;20207;-78
2023/09/07 11:13:42;;;;;;;5.10;4.70;;;;;;;25.41;84.85;100443.22;5024149;28;20183;-77